createdAt,value
2018-06-19T00:02:30.291Z,71.6
2018-06-19T00:19:14.146Z,72.4
2018-06-19T00:35:57.793Z,72.8
2018-06-19T00:52:42.320Z,72.8
2018-06-19T01:09:25.495Z,72.4
2018-06-19T01:26:09.486Z,73.2
2018-06-19T01:42:53.635Z,73.2
2018-06-19T01:59:37.693Z,73.6
2018-06-19T02:16:21.768Z,72.8
2018-06-19T02:33:05.667Z,72.8
2018-06-19T02:49:49.279Z,72.8
2018-06-19T03:06:33.458Z,72.8
2018-06-19T03:23:16.343Z,72.8
2018-06-19T03:40:00.012Z,72.8
2018-06-19T03:56:43.603Z,72.8
2018-06-19T04:13:27.288Z,72.8
2018-06-19T04:30:10.967Z,72.8
2018-06-19T04:46:54.772Z,72.8
2018-06-19T05:03:38.715Z,72.8
2018-06-19T05:20:22.989Z,72.8
2018-06-19T05:37:07.358Z,72.8
2018-06-19T05:53:51.860Z,73.2
2018-06-19T06:10:37.056Z,73.2
2018-06-19T06:27:20.803Z,74.0
2018-06-19T06:44:05.352Z,74.0
2018-06-19T06:57:29.413Z,73.6
2018-06-19T07:14:14.663Z,73.2
2018-06-19T07:31:00.524Z,72.8
2018-06-19T07:47:47.321Z,72.0
2018-06-19T08:04:32.860Z,72.0
2018-06-19T08:21:18.655Z,72.8
2018-06-19T08:38:06.129Z,73.2
2018-06-19T08:54:50.406Z,73.6
2018-06-19T09:04:54.161Z,73.2
2018-06-19T09:11:36.903Z,72.8
2018-06-19T09:28:24.316Z,71.6
2018-06-19T09:45:11.397Z,71.2
2018-06-19T10:01:58.565Z,71.6
2018-06-19T10:18:45.525Z,71.6
2018-06-19T10:35:32.668Z,72.0
2018-06-19T10:48:58.644Z,71.6
2018-06-19T10:55:41.904Z,70.8
2018-06-19T11:12:30.304Z,70.4
2018-06-19T11:25:57.159Z,70.0
2018-06-19T11:32:41.135Z,69.2
2018-06-19T11:46:08.923Z,67.6
2018-06-19T12:02:58.839Z,67.6
2018-06-19T12:19:48.663Z,66.8
2018-06-19T12:29:54.585Z,67.2
2018-06-19T12:46:44.998Z,66.4
2018-06-19T12:56:51.350Z,65.6
2018-06-19T13:13:42.069Z,64.8
2018-06-19T13:30:33.368Z,64.4
2018-06-19T13:40:39.979Z,63.6
2018-06-19T13:57:31.968Z,62.4
2018-06-19T14:04:16.547Z,62.4
2018-06-19T14:14:23.096Z,63.6
2018-06-19T14:31:13.412Z,64.0
2018-06-19T14:44:41.371Z,64.4
2018-06-19T14:54:46.864Z,66.0
2018-06-19T15:08:13.772Z,68.0
2018-06-19T15:25:02.523Z,68.0
2018-06-19T15:35:07.951Z,67.6
2018-06-19T15:45:13.478Z,67.2
2018-06-19T16:02:02.372Z,66.8
2018-06-19T16:18:51.438Z,66.4
2018-06-19T16:35:40.085Z,68.0
2018-06-19T16:52:28.399Z,69.2
2018-06-19T17:09:16.728Z,69.6
2018-06-19T17:26:04.820Z,70.0
2018-06-19T17:42:52.803Z,70.0
2018-06-19T17:59:40.768Z,70.4
2018-06-19T18:16:28.758Z,71.2
2018-06-19T18:33:15.841Z,72.0
2018-06-19T18:50:03.071Z,72.4
2018-06-19T19:06:50.361Z,72.4
2018-06-19T19:23:37.712Z,72.8
2018-06-19T19:40:24.726Z,73.2
2018-06-19T19:57:11.609Z,73.6
2018-06-19T20:13:58.488Z,73.6
2018-06-19T20:30:45.268Z,74.4
2018-06-19T20:47:32.111Z,74.8
2018-06-19T21:04:18.864Z,74.8
2018-06-19T21:21:05.637Z,75.2
2018-06-19T21:37:52.298Z,75.2
2018-06-19T21:54:38.938Z,76.0
2018-06-19T22:11:25.460Z,76.0
2018-06-19T22:28:12.029Z,76.0
2018-06-19T22:44:58.487Z,76.8
2018-06-19T23:01:44.900Z,76.8
2018-06-19T23:18:31.395Z,76.8
2018-06-19T23:35:17.877Z,76.8
2018-06-19T23:52:04.356Z,77.2
